Latest Weather Observations for Ouse

IDT60801

Issued at 8:11 pm EST Thursday 24 September 2020 (issued every 10 minutes, with the page automatically refreshed every 10 minutes)

About weather observations | Map of weather stations | Latest weather observations for TAS | Other Formats
Station Details ID: 095048 Name: OUSE FIRE STATION Lat: -42.48 Lon: 146.71 Height: 90.0 m
Data from the previous 72 hours. | See also: Recent months at Ouse
Date/Time
EST
Temp
°C
App
Temp
°C
Dew
Point
°C
Rel
Hum
%
Delta-T
°C
Wind Press
QNH
hPa
Press
MSL
hPa
Rain since
9am
mm
Dir  Spd
km/h
Gust
km/h
Spd
kts
Gust
kts
24/08:00pm 8.2 5.8 5.3 82 1.3 S 7 11 4 6 1006.3 1006.4 0.8
24/07:30pm 8.1 6.9 4.7 79 1.5 CALM 0 0 0 0 1006.1 1006.2 0.8
24/07:00pm 8.7 5.4 4.3 74 1.9 W 11 13 6 7 1005.8 1005.9 0.8
24/06:30pm 9.7 6.7 4.3 69 2.4 W 9 11 5 6 1005.6 1005.7 0.8
24/06:00pm 10.3 6.5 4.0 65 2.8 W 13 19 7 10 1005.5 1005.6 0.8
24/05:30pm 11.1 7.8 4.6 64 2.9 W 11 13 6 7 1005.1 1005.2 0.8
24/05:00pm 12.0 7.9 4.5 60 3.4 SW 15 19 8 10 1004.8 1004.9 0.8
24/04:30pm 12.1 8.0 4.3 59 3.5 WSW 15 20 8 11 1004.5 1004.7 0.8
24/04:00pm 12.0 7.6 4.7 61 3.4 SW 17 20 9 11 1004.4 1004.6 0.8
24/03:30pm 12.8 8.4 4.5 57 3.8 W 17 28 9 15 1004.4 1004.6 0.8
24/03:00pm 12.2 9.9 4.9 61 3.4 ENE 6 9 3 5 1004.5 1004.7 0.8
24/02:30pm 11.4 9.7 5.9 69 2.6 SW 4 7 2 4 1004.9 1005.0 0.8
24/02:01pm 9.4 3.0 5.2 75 1.9 W 28 46 15 25 1005.3 1005.4 0.2
24/02:00pm 9.4 3.0 5.4 76 1.8 W 28 46 15 25 1005.3 1005.4 0.2
24/01:54pm 10.1 4.0 4.9 70 2.4 WNW 26 37 14 20 1005.1 1005.2 0.0
24/01:30pm 13.7 10.2 3.5 50 4.6 WNW 11 17 6 9 1004.6 1004.8 0.0
24/01:00pm 13.2 9.4 3.8 53 4.3 SSW 13 20 7 11 1005.1 1005.2 0.0
24/12:30pm 13.8 10.2 5.2 56 4.0 SW 13 17 7 9 1005.4 1005.5 0.0
24/12:00pm 12.2 8.2 2.9 53 4.1 N 13 20 7 11 1005.7 1005.8 0.0
24/11:30am 11.4 8.2 3.2 57 3.6 NNW 9 15 5 8 1006.2 1006.3 0.0
24/11:00am 10.7 8.2 3.5 61 3.2 S 6 11 3 6 1006.6 1006.7 0.0
24/10:30am 11.2 8.1 3.5 59 3.4 NW 9 15 5 8 1007.0 1007.1 0.0
24/10:00am 10.1 7.0 3.8 65 2.8 WSW 9 13 5 7 1007.4 1007.5 0.0
24/09:30am 9.3 6.1 3.3 66 2.6 NW 9 13 5 7 1007.5 1007.6 0.0
24/09:00am 10.0 6.1 3.5 64 2.9 N 13 20 7 11 1007.4 1007.5 0.0
24/08:30am 8.8 5.2 3.2 68 2.4 N 11 17 6 9 1007.4 1007.5 0.0
24/08:00am 8.1 5.0 3.8 74 1.9 NNW 9 17 5 9 1007.5 1007.6 0.0
24/07:30am 7.1 4.9 3.5 78 1.5 ESE 4 7 2 4 1007.5 1007.6 0.0
24/07:00am 6.3 3.6 3.5 82 1.2 NNW 7 15 4 8 1007.3 1007.4 0.0
24/06:30am 5.6 2.5 3.6 87 0.8 NNW 9 15 5 8 1007.0 1007.1 0.0
24/06:00am 5.1 2.7 4.2 94 0.4 NNW 6 13 3 7 1006.9 1007.0 0.0
24/05:30am 4.4 3.0 3.7 95 0.3 CALM 0 6 0 3 1006.8 1006.9 0.0
24/05:00am 3.6 0.8 2.9 95 0.3 NW 7 9 4 5 1006.8 1006.9 0.0
24/04:30am 3.5 0.6 2.5 93 0.4 NW 7 13 4 7 1006.7 1006.8 0.0
24/04:00am 4.1 1.3 2.9 92 0.5 NNW 7 9 4 5 1006.6 1006.7 0.0
24/03:30am 5.0 2.3 3.7 91 0.5 N 7 9 4 5 1006.7 1006.8 0.0
24/03:00am 5.5 2.8 3.8 89 0.7 NNW 7 9 4 5 1006.8 1006.9 0.0
24/02:30am 5.9 2.9 4.1 88 0.8 NNW 9 13 5 7 1006.8 1006.9 0.0
24/02:00am 6.2 3.2 4.2 87 0.9 NNW 9 13 5 7 1007.1 1007.2 0.0
24/01:30am 6.2 3.5 3.7 84 1.1 N 7 9 4 5 1007.3 1007.4 0.0
24/01:00am 7.1 4.5 4.1 81 1.3 N 7 7 4 4 1007.4 1007.5 0.0
24/12:30am 7.9 4.8 3.8 75 1.8 NW 9 13 5 7 1007.6 1007.7 0.0
24/12:00am 7.9 4.0 3.6 74 1.9 NW 13 17 7 9 1007.4 1007.5 0.0
 
Date/Time
EST
Temp
°C
App
Temp
°C
Dew
Point
°C
Rel
Hum
%
Delta-T
°C
Wind Press
QNH
hPa
Press
MSL
hPa
Rain since
9am
mm
Dir  Spd
km/h
Gust
km/h
Spd
kts
Gust
kts
23/11:30pm 7.3 4.6 3.5 77 1.6 NW 7 11 4 6 1007.5 1007.6 0.0
23/11:00pm 8.4 4.8 3.1 69 2.3 NW 11 15 6 8 1007.6 1007.7 0.0
23/10:30pm 9.1 4.4 2.9 65 2.7 W 17 28 9 15 1007.5 1007.6 0.0
23/10:00pm 8.7 4.6 4.3 74 1.9 W 15 19 8 10 1007.4 1007.5 0.0
23/09:30pm 8.4 5.5 4.6 77 1.7 W 9 13 5 7 1007.4 1007.5 0.0
23/09:00pm 8.7 5.1 4.9 77 1.7 W 13 19 7 10 1007.2 1007.3 0.0
23/08:30pm 8.9 5.7 5.1 77 1.7 WNW 11 17 6 9 1006.9 1007.0 0.0
23/08:00pm 9.3 5.4 5.3 76 1.8 WNW 15 20 8 11 1006.6 1006.7 0.0
23/07:30pm 9.8 5.5 5.4 74 2.0 W 17 20 9 11 1006.3 1006.4 0.0
23/07:00pm 10.1 5.8 5.3 72 2.2 W 17 22 9 12 1005.9 1006.0 0.0
23/06:30pm 10.4 6.2 5.6 72 2.2 W 17 24 9 13 1005.5 1005.6 0.0
23/06:00pm 11.1 6.9 5.6 69 2.6 W 17 22 9 12 1004.9 1005.0 0.0
23/05:30pm 11.7 8.2 5.6 66 2.8 WNW 13 19 7 10 1004.4 1004.6 0.0
23/05:00pm 12.7 9.8 6.3 65 3.1 W 11 17 6 9 1003.9 1004.0 0.0
23/04:30pm 12.3 9.1 7.0 70 2.6 SW 13 20 7 11 1003.6 1003.7 0.0
23/04:00pm 11.9 6.6 7.0 72 2.4 SW 24 32 13 17 1003.0 1003.1 0.0
23/03:30pm 12.8 8.2 6.6 66 3.0 SW 20 30 11 16 1002.8 1002.9 0.0
23/03:00pm 13.6 9.2 7.6 67 3.0 SW 20 35 11 19 1002.4 1002.5 0.0
23/02:30pm 14.5 9.6 6.8 60 3.8 WSW 22 39 12 21 1001.9 1002.0 0.0
23/02:00pm 14.6 10.0 6.4 58 4.0 WSW 20 28 11 15 1001.6 1001.7 0.0
23/01:30pm 15.1 10.7 7.2 59 3.9 W 20 32 11 17 1001.1 1001.2 0.0
23/01:00pm 14.9 10.4 7.0 59 3.9 WSW 20 32 11 17 1001.0 1001.1 0.0
23/12:30pm 14.8 10.2 6.4 57 4.1 SSW 20 28 11 15 1000.8 1000.9 0.0
23/12:00pm 14.4 10.0 6.5 59 3.9 SW 19 32 10 17 1000.6 1000.7 0.0
23/11:30am 14.5 10.6 7.1 61 3.6 WSW 17 28 9 15 1000.3 1000.4 0.0
23/11:00am 14.1 9.7 6.7 61 3.6 W 19 32 10 17 999.9 1000.0 0.0
23/10:30am 13.7 8.8 6.8 63 3.3 W 22 33 12 18 999.9 1000.0 0.0
23/10:00am 13.6 9.2 6.5 62 3.4 WNW 19 35 10 19 999.6 999.7 0.0
23/09:30am 12.8 8.6 7.3 69 2.7 WNW 19 28 10 15 999.5 999.6 0.0
23/09:00am 11.8 7.5 6.9 72 2.4 NW 19 26 10 14 999.3 999.4 2.8
23/08:30am 11.4 7.9 7.1 75 2.1 NNE 15 20 8 11 998.9 999.0 2.8
23/08:00am 10.4 7.6 7.1 80 1.6 N 11 19 6 10 998.5 998.6 2.8
23/07:30am 10.1 6.6 7.0 81 1.5 NNE 15 20 8 11 998.0 998.1 2.8
23/07:00am 9.6 6.4 6.9 83 1.3 NNE 13 17 7 9 997.6 997.7 2.6
23/06:30am 9.6 7.0 6.1 79 1.6 N 9 15 5 8 997.2 997.3 2.6
23/06:00am 10.2 7.2 6.0 75 2.0 NNW 11 28 6 15 996.9 997.0 2.4
23/05:30am 10.0 5.8 5.8 75 1.9 N 17 24 9 13 996.2 996.3 2.4
23/05:00am 10.0 5.3 5.2 72 2.2 N 19 30 10 16 995.9 996.0 2.4
23/04:30am 9.5 4.8 5.1 74 2.0 N 19 28 10 15 995.7 995.8 2.4
23/04:00am 9.2 4.5 5.2 76 1.8 N 19 26 10 14 995.4 995.5 2.4
23/03:30am 8.9 4.8 4.5 74 2.0 N 15 24 8 13 995.6 995.7 2.4
23/03:00am 8.7 5.0 4.5 75 1.9 N 13 22 7 12 995.6 995.7 2.4
23/02:30am 8.8 4.7 4.4 74 1.9 NNW 15 24 8 13 995.8 995.9 2.4
23/02:00am 9.0 4.9 4.6 74 2.0 NNW 15 22 8 12 996.2 996.3 2.4
23/01:30am 9.1 4.7 4.5 73 2.0 NNW 17 26 9 14 996.4 996.5 2.4
23/01:00am 9.2 4.2 4.6 73 2.1 NNW 20 30 11 16 996.6 996.7 2.4
23/12:30am 9.1 5.1 4.7 74 2.0 NNW 15 24 8 13 996.8 996.9 2.4
23/12:00am 9.0 5.5 5.4 78 1.6 N 13 19 7 10 996.9 997.0 2.4
 
Date/Time
EST
Temp
°C
App
Temp
°C
Dew
Point
°C
Rel
Hum
%
Delta-T
°C
Wind Press
QNH
hPa
Press
MSL
hPa
Rain since
9am
mm
Dir  Spd
km/h
Gust
km/h
Spd
kts
Gust
kts
22/11:30pm 9.2 6.1 5.4 77 1.7 NNW 11 15 6 8 997.1 997.2 2.4
22/11:00pm 9.6 6.1 5.4 75 1.9 NNW 13 22 7 12 997.1 997.2 2.4
22/10:30pm 9.6 6.6 6.1 79 1.6 N 11 15 6 8 996.9 997.0 2.4
22/10:00pm 9.7 6.3 6.1 78 1.7 NNW 13 19 7 10 996.6 996.7 2.4
22/09:30pm 9.2 5.5 6.5 83 1.3 NW 15 20 8 11 996.2 996.3 2.4
22/09:00pm 7.4 4.3 5.4 87 0.9 N 11 15 6 8 995.9 996.0 2.4
22/08:30pm 8.3 4.9 5.9 85 1.1 NNW 13 17 7 9 995.9 996.0 2.4
22/08:00pm 8.4 5.1 6.4 87 0.9 NNW 13 17 7 9 995.9 996.0 2.4
22/07:30pm 7.8 4.5 6.3 90 0.7 N 13 17 7 9 995.6 995.7 2.4
22/07:00pm 9.7 7.0 7.3 85 1.2 NNW 11 20 6 11 995.8 995.9 2.4
22/06:30pm 9.4 7.0 7.2 86 1.0 N 9 13 5 7 995.5 995.6 2.4
22/06:00pm 10.6 8.4 7.7 82 1.4 N 9 17 5 9 995.3 995.4 2.4
22/05:30pm 11.2 8.8 8.8 85 1.2 N 11 13 6 7 994.9 995.0 2.4
22/05:00pm 11.7 9.3 8.6 81 1.6 NW 11 17 6 9 995.0 995.1 1.8
22/04:30pm 12.1 9.8 8.9 81 1.6 NNW 11 20 6 11 994.5 994.5 1.8
22/04:00pm 13.0 10.5 8.3 73 2.4 NNW 11 20 6 11 994.3 994.3 1.0
22/03:30pm 13.0 9.4 8.5 74 2.3 WNW 17 24 9 13 994.2 994.2 1.0
22/03:00pm 12.7 8.6 8.0 73 2.3 WNW 19 30 10 16 994.3 994.3 0.4
22/02:30pm 13.8 9.7 8.6 71 2.6 W 20 33 11 18 994.1 994.1 0.4
22/02:00pm 14.6 10.5 8.5 67 3.1 WNW 20 33 11 18 993.8 993.8 0.4
22/01:30pm 16.2 10.9 6.9 54 4.6 NNW 24 39 13 21 993.5 993.5 0.0
22/01:00pm 15.6 11.0 6.3 54 4.6 WNW 20 37 11 20 993.7 993.7 0.0
22/12:30pm 15.9 11.4 7.1 56 4.4 W 20 32 11 17 994.2 994.2 0.0
22/12:00pm 15.3 9.2 6.6 56 4.3 WNW 28 44 15 24 994.3 994.3 0.0
22/11:30am 14.9 8.8 6.5 57 4.1 WNW 28 41 15 22 994.0 994.0 0.0
22/11:13am 16.0 9.7 5.9 51 4.9 WNW 28 46 15 25 994.0 994.0 0.0
22/11:00am 16.1 10.0 6.5 53 4.8 WNW 28 39 15 21 994.0 994.0 0.0
22/10:34am 15.8 9.6 6.0 52 4.8 NW 28 46 15 25 994.1 994.1 0.0
22/10:30am 15.7 9.9 6.2 53 4.6 NW 26 41 14 22 994.1 994.1 0.0
22/10:09am 15.0 7.9 5.5 53 4.5 NW 32 50 17 27 994.2 994.2 0.0
22/10:00am 15.1 8.9 6.1 55 4.4 NW 28 44 15 24 994.3 994.3 0.0
22/09:30am 14.8 8.3 6.4 57 4.1 NW 30 50 16 27 994.4 994.4 0.0
22/09:11am 14.2 8.0 6.3 59 3.8 NW 28 48 15 26 994.5 994.5 0.0
22/09:00am 14.0 9.4 6.4 60 3.7 NW 20 39 11 21 994.6 994.6 0.0
22/08:30am 13.2 9.3 7.0 66 3.0 NW 17 30 9 16 994.8 994.8 0.0
22/08:00am 11.8 9.8 7.1 73 2.3 NNW 7 15 4 8 994.9 995.0 0.0
22/07:30am 8.3 6.4 7.7 96 0.3 N 7 9 4 5 995.3 995.4 0.0
22/07:00am 4.9 2.6 4.6 98 0.1 N 6 7 3 4 995.4 995.5 0.0
22/06:30am 4.2 2.1 4.1 99 0.0 NNW 4 6 2 3 995.5 995.6 0.0
22/06:00am 3.7 2.3 3.6 99 0.0 CALM 0 0 0 0 995.6 995.7 0.0
22/05:30am 3.9 2.5 3.8 99 0.0 CALM 0 0 0 0 995.7 995.8 0.0
22/05:00am 3.5 0.7 3.2 98 0.1 N 7 9 4 5 995.6 995.7 0.0
22/04:30am 3.9 2.5 3.6 98 0.1 CALM 0 0 0 0 995.6 995.7 0.0
22/04:00am 3.9 2.5 3.5 97 0.2 CALM 0 0 0 0 995.6 995.7 0.0
22/03:30am 4.1 2.7 3.7 97 0.2 CALM 0 0 0 0 995.6 995.7 0.0
22/03:00am 4.2 1.7 3.8 97 0.2 NW 6 7 3 4 995.6 995.7 0.0
22/02:30am 4.4 3.0 3.8 96 0.3 CALM 0 0 0 0 996.1 996.2 0.0
22/02:00am 4.7 3.1 4.3 97 0.2 SE 2 7 1 4 996.6 996.7 0.0
22/01:30am 4.4 3.0 3.8 96 0.3 CALM 0 0 0 0 997.2 997.3 0.0
22/01:00am 4.4 1.7 3.5 94 0.4 SE 7 9 4 5 997.5 997.6 0.0
22/12:30am 4.6 1.9 3.6 93 0.4 SSE 7 9 4 5 997.6 997.7 0.0
22/12:00am 5.1 3.4 3.8 91 0.6 W 2 9 1 5 997.9 998.0 0.0
 
Date/Time
EST
Temp
°C
App
Temp
°C
Dew
Point
°C
Rel
Hum
%
Delta-T
°C
Wind Press
QNH
hPa
Press
MSL
hPa
Rain since
9am
mm
Dir  Spd
km/h
Gust
km/h
Spd
kts
Gust
kts
21/11:30pm 5.7 3.2 4.8 94 0.4 WSW 7 9 4 5 998.3 998.4 0.0
21/11:00pm 4.9 3.6 3.9 93 0.4 CALM 0 0 0 0 998.5 998.6 0.0
21/10:30pm 5.0 3.6 3.7 91 0.5 CALM 0 6 0 3 998.8 998.9 0.0
21/10:00pm 5.2 2.5 3.9 91 0.6 N 7 9 4 5 999.2 999.3 0.0
21/09:30pm 5.7 2.7 4.2 90 0.6 NNW 9 9 5 5 999.4 999.5 0.0
21/09:00pm 6.6 4.0 4.3 85 1.0 NNW 7 11 4 6 999.6 999.7 0.0
21/08:30pm 7.0 5.4 4.3 83 1.2 N 2 6 1 3 999.4 999.5 0.0

Other formats

Comma delimited format used in spreadsheet applications
http://www.bom.gov.au/fwo/IDT60801/IDT60801.94957.axf

JavaScript Object Notation format (JSON) in row-major order
http://www.bom.gov.au/fwo/IDT60801/IDT60801.94957.json

Data quality

Most of these data are generated automatically and are frequently updated. Quality checks on data are not normally performed. It is possible for incorrect values to appear. Refer to information at About Latest Weather Observations and please check the disclaimer before using these data.